sensor_id;sensor_type;location;lat;lon;timestamp;pressure;altitude;pressure_sealevel;temperature;humidity
18678;BME280;9469;51.114;13.914;2023-03-23T00:01:08;98019.78;;;14.13;76.64
18678;BME280;9469;51.114;13.914;2023-03-23T00:06:15;98010.97;;;14.12;76.78
18678;BME280;9469;51.114;13.914;2023-03-23T00:11:21;98008.31;;;14.12;76.59
18678;BME280;9469;51.114;13.914;2023-03-23T00:16:32;98002.38;;;14.19;76.30
18678;BME280;9469;51.114;13.914;2023-03-23T00:21:42;98005.28;;;14.14;76.75
18678;BME280;9469;51.114;13.914;2023-03-23T00:26:48;97999.94;;;14.14;76.19
18678;BME280;9469;51.114;13.914;2023-03-23T00:31:58;98006.72;;;14.11;76.71
18678;BME280;9469;51.114;13.914;2023-03-23T00:37:07;98003.31;;;14.11;76.62
18678;BME280;9469;51.114;13.914;2023-03-23T00:42:13;98003.63;;;14.09;76.55
18678;BME280;9469;51.114;13.914;2023-03-23T00:47:24;98005.97;;;14.11;75.88
18678;BME280;9469;51.114;13.914;2023-03-23T00:52:29;97996.69;;;14.20;75.31
18678;BME280;9469;51.114;13.914;2023-03-23T00:57:35;97992.81;;;14.18;75.03
18678;BME280;9469;51.114;13.914;2023-03-23T01:02:43;97981.06;;;14.22;75.28
18678;BME280;9469;51.114;13.914;2023-03-23T01:07:50;97979.53;;;14.21;75.34
18678;BME280;9469;51.114;13.914;2023-03-23T01:12:55;97972.88;;;14.15;75.95
18678;BME280;9469;51.114;13.914;2023-03-23T01:18:03;97966.06;;;14.18;74.79
18678;BME280;9469;51.114;13.914;2023-03-23T01:23:14;97954.91;;;14.16;74.66
18678;BME280;9469;51.114;13.914;2023-03-23T01:28:19;97943.78;;;14.14;74.18
18678;BME280;9469;51.114;13.914;2023-03-23T01:33:27;97942.44;;;14.20;73.80
18678;BME280;9469;51.114;13.914;2023-03-23T01:38:34;97939.41;;;14.21;73.11
18678;BME280;9469;51.114;13.914;2023-03-23T01:43:54;97944.16;;;14.28;72.16
18678;BME280;9469;51.114;13.914;2023-03-23T01:49:08;97938.25;;;14.34;70.79
18678;BME280;9469;51.114;13.914;2023-03-23T01:54:17;97937.22;;;14.39;70.59
18678;BME280;9469;51.114;13.914;2023-03-23T01:59:24;97931.44;;;14.37;70.48
18678;BME280;9469;51.114;13.914;2023-03-23T02:04:51;97936.53;;;14.42;69.87
18678;BME280;9469;51.114;13.914;2023-03-23T02:10:05;97934.19;;;14.41;69.55
18678;BME280;9469;51.114;13.914;2023-03-23T02:15:11;97918.84;;;14.38;68.97
18678;BME280;9469;51.114;13.914;2023-03-23T02:20:34;97931.97;;;14.43;68.59
18678;BME280;9469;51.114;13.914;2023-03-23T02:25:58;97919.09;;;14.48;68.02
18678;BME280;9469;51.114;13.914;2023-03-23T02:31:21;97918.31;;;14.48;67.63
18678;BME280;9469;51.114;13.914;2023-03-23T02:36:38;97912.66;;;14.49;67.04
18678;BME280;9469;51.114;13.914;2023-03-23T02:41:53;97919.22;;;14.52;66.98
18678;BME280;9469;51.114;13.914;2023-03-23T02:47:00;97925.75;;;14.54;66.49
18678;BME280;9469;51.114;13.914;2023-03-23T02:52:12;97916.19;;;14.53;65.95
18678;BME280;9469;51.114;13.914;2023-03-23T02:57:20;97913.25;;;14.58;65.73
18678;BME280;9469;51.114;13.914;2023-03-23T03:02:44;97918.25;;;14.60;65.80
18678;BME280;9469;51.114;13.914;2023-03-23T03:08:02;97910.16;;;14.56;65.70
18678;BME280;9469;51.114;13.914;2023-03-23T03:13:17;97910.16;;;14.56;65.72
18678;BME280;9469;51.114;13.914;2023-03-23T03:18:28;97904.81;;;14.56;65.87
18678;BME280;9469;51.114;13.914;2023-03-23T03:23:38;97906.94;;;14.51;65.95
18678;BME280;9469;51.114;13.914;2023-03-23T03:28:47;97896.66;;;14.53;65.84
18678;BME280;9469;51.114;13.914;2023-03-23T03:33:55;97889.69;;;14.20;67.81
18678;BME280;9469;51.114;13.914;2023-03-23T03:39:09;97893.22;;;14.09;69.37
18678;BME280;9469;51.114;13.914;2023-03-23T03:44:17;97891.47;;;14.01;70.43
18678;BME280;9469;51.114;13.914;2023-03-23T03:49:26;97884.66;;;14.31;68.92
18678;BME280;9469;51.114;13.914;2023-03-23T03:54:34;97889.66;;;14.48;68.17
18678;BME280;9469;51.114;13.914;2023-03-23T03:59:40;97874.41;;;14.49;68.51
18678;BME280;9469;51.114;13.914;2023-03-23T04:05:13;97884.13;;;14.57;69.41
18678;BME280;9469;51.114;13.914;2023-03-23T04:10:22;97881.31;;;14.65;68.65
18678;BME280;9469;51.114;13.914;2023-03-23T04:15:35;97882.25;;;14.73;68.40
18678;BME280;9469;51.114;13.914;2023-03-23T04:21:03;97882.25;;;14.73;68.91
18678;BME280;9469;51.114;13.914;2023-03-23T04:26:12;97876.56;;;14.74;68.43
18678;BME280;9469;51.114;13.914;2023-03-23T04:31:22;97870.00;;;14.72;68.77
18678;BME280;9469;51.114;13.914;2023-03-23T04:36:39;97860.75;;;14.69;69.04
18678;BME280;9469;51.114;13.914;2023-03-23T04:42:07;97858.94;;;14.58;70.56
18678;BME280;9469;51.114;13.914;2023-03-23T04:47:37;97857.75;;;14.40;72.32
18678;BME280;9469;51.114;13.914;2023-03-23T04:52:53;97852.44;;;14.27;74.01
18678;BME280;9469;51.114;13.914;2023-03-23T04:58:04;97856.13;;;14.07;74.49
18678;BME280;9469;51.114;13.914;2023-03-23T05:03:16;97866.03;;;14.07;75.05
18678;BME280;9469;51.114;13.914;2023-03-23T05:08:30;97857.69;;;14.24;74.44
18678;BME280;9469;51.114;13.914;2023-03-23T05:13:46;97848.94;;;13.96;75.71
18678;BME280;9469;51.114;13.914;2023-03-23T05:18:54;97852.94;;;14.02;74.99
18678;BME280;9469;51.114;13.914;2023-03-23T05:24:05;97846.03;;;14.16;74.48
18678;BME280;9469;51.114;13.914;2023-03-23T05:29:13;97860.09;;;14.13;74.31
18678;BME280;9469;51.114;13.914;2023-03-23T05:34:30;97853.88;;;14.25;73.77
18678;BME280;9469;51.114;13.914;2023-03-23T05:39:37;97850.53;;;14.28;73.34
18678;BME280;9469;51.114;13.914;2023-03-23T05:44:52;97856.13;;;14.23;73.78
18678;BME280;9469;51.114;13.914;2023-03-23T05:50:04;97861.38;;;14.04;73.84
18678;BME280;9469;51.114;13.914;2023-03-23T05:55:12;97870.34;;;14.11;73.99
18678;BME280;9469;51.114;13.914;2023-03-23T06:00:26;97858.03;;;14.22;73.36
18678;BME280;9469;51.114;13.914;2023-03-23T06:05:44;97853.81;;;14.21;73.17
18678;BME280;9469;51.114;13.914;2023-03-23T06:10:52;97850.53;;;14.28;72.65
18678;BME280;9469;51.114;13.914;2023-03-23T06:16:01;97865.75;;;14.40;71.79
18678;BME280;9469;51.114;13.914;2023-03-23T06:21:25;97878.53;;;14.46;71.34
18678;BME280;9469;51.114;13.914;2023-03-23T06:26:40;97866.19;;;14.57;71.44
18678;BME280;9469;51.114;13.914;2023-03-23T06:31:56;97856.25;;;14.73;70.43
18678;BME280;9469;51.114;13.914;2023-03-23T06:37:03;97854.50;;;14.96;70.41
18678;BME280;9469;51.114;13.914;2023-03-23T06:42:31;97856.16;;;14.85;69.71
18678;BME280;9469;51.114;13.914;2023-03-23T06:47:59;97869.00;;;14.95;69.98
18678;BME280;9469;51.114;13.914;2023-03-23T06:53:05;97867.31;;;14.87;70.86
18678;BME280;9469;51.114;13.914;2023-03-23T06:58:19;97877.47;;;14.97;69.92
18678;BME280;9469;51.114;13.914;2023-03-23T07:03:31;97883.69;;;15.01;70.16
18678;BME280;9469;51.114;13.914;2023-03-23T07:08:39;97881.97;;;14.93;70.50
18678;BME280;9469;51.114;13.914;2023-03-23T07:13:50;97886.06;;;15.22;69.98
18678;BME280;9469;51.114;13.914;2023-03-23T07:18:58;97890.38;;;15.27;69.88
18678;BME280;9469;51.114;13.914;2023-03-23T07:24:05;97884.41;;;15.33;69.45
18678;BME280;9469;51.114;13.914;2023-03-23T07:29:30;97891.22;;;15.65;68.41
18678;BME280;9469;51.114;13.914;2023-03-23T07:34:49;97897.31;;;16.01;67.49
18678;BME280;9469;51.114;13.914;2023-03-23T07:40:15;97906.75;;;16.14;67.04
18678;BME280;9469;51.114;13.914;2023-03-23T07:45:24;97906.69;;;15.91;67.32
18678;BME280;9469;51.114;13.914;2023-03-23T07:50:37;97909.91;;;15.81;67.95
18678;BME280;9469;51.114;13.914;2023-03-23T07:55:45;97911.81;;;15.61;68.36
18678;BME280;9469;51.114;13.914;2023-03-23T08:01:11;97912.59;;;15.62;68.70
18678;BME280;9469;51.114;13.914;2023-03-23T08:06:32;97930.59;;;15.61;69.44
18678;BME280;9469;51.114;13.914;2023-03-23T08:11:57;97929.97;;;15.68;69.04
18678;BME280;9469;51.114;13.914;2023-03-23T08:17:39;97930.53;;;15.77;69.68
18678;BME280;9469;51.114;13.914;2023-03-23T08:23:01;97932.66;;;15.87;69.99
18678;BME280;9469;51.114;13.914;2023-03-23T08:28:22;97932.56;;;15.64;69.89
18678;BME280;9469;51.114;13.914;2023-03-23T08:33:47;97942.47;;;15.45;70.71
18678;BME280;9469;51.114;13.914;2023-03-23T08:39:07;97943.63;;;15.44;71.12
18678;BME280;9469;51.114;13.914;2023-03-23T08:44:35;97944.53;;;15.36;72.14
18678;BME280;9469;51.114;13.914;2023-03-23T08:50:15;97942.19;;;15.50;72.15
18678;BME280;9469;51.114;13.914;2023-03-23T08:55:42;97959.69;;;15.44;72.41
18678;BME280;9469;51.114;13.914;2023-03-23T09:00:57;97957.28;;;15.23;74.78
18678;BME280;9469;51.114;13.914;2023-03-23T09:06:22;97962.88;;;15.34;77.52
18678;BME280;9469;51.114;13.914;2023-03-23T09:11:32;97950.72;;;15.21;78.93
18678;BME280;9469;51.114;13.914;2023-03-23T09:16:38;97957.28;;;15.23;79.44
18678;BME280;9469;51.114;13.914;2023-03-23T09:21:43;97963.00;;;15.22;80.32
18678;BME280;9469;51.114;13.914;2023-03-23T09:26:51;97971.72;;;15.19;80.99
18678;BME280;9469;51.114;13.914;2023-03-23T09:31:57;97978.47;;;15.13;85.79
18678;BME280;9469;51.114;13.914;2023-03-23T09:37:03;97982.25;;;14.96;87.19
18678;BME280;9469;51.114;13.914;2023-03-23T09:42:23;97982.19;;;14.92;89.91
18678;BME280;9469;51.114;13.914;2023-03-23T09:47:38;97986.03;;;14.79;92.25
18678;BME280;9469;51.114;13.914;2023-03-23T09:52:56;97990.16;;;14.61;94.73
18678;BME280;9469;51.114;13.914;2023-03-23T09:58:10;97993.72;;;14.65;93.45
18678;BME280;9469;51.114;13.914;2023-03-23T10:03:20;97987.22;;;14.51;94.55
18678;BME280;9469;51.114;13.914;2023-03-23T10:08:30;97986.31;;;14.74;95.31
18678;BME280;9469;51.114;13.914;2023-03-23T10:13:58;97984.69;;;15.01;93.73
18678;BME280;9469;51.114;13.914;2023-03-23T10:19:12;97967.63;;;15.25;93.33
18678;BME280;9469;51.114;13.914;2023-03-23T10:24:29;97955.19;;;15.48;90.38
18678;BME280;9469;51.114;13.914;2023-03-23T10:29:45;97959.69;;;15.44;88.18
18678;BME280;9469;51.114;13.914;2023-03-23T10:34:56;97984.53;;;15.75;86.54
18678;BME280;9469;51.114;13.914;2023-03-23T10:40:13;97971.13;;;16.14;85.62
18678;BME280;9469;51.114;13.914;2023-03-23T10:45:27;97971.47;;;15.93;82.65
18678;BME280;9469;51.114;13.914;2023-03-23T10:50:36;97961.03;;;15.88;84.77
18678;BME280;9469;51.114;13.914;2023-03-23T10:55:43;97954.09;;;16.06;83.11
18678;BME280;9469;51.114;13.914;2023-03-23T11:00:54;97959.41;;;16.03;81.67
18678;BME280;9469;51.114;13.914;2023-03-23T11:06:02;97956.78;;;16.25;81.76
18678;BME280;9469;51.114;13.914;2023-03-23T11:11:14;97961.47;;;16.09;83.13
18678;BME280;9469;51.114;13.914;2023-03-23T11:16:30;97958.63;;;16.21;81.13
18678;BME280;9469;51.114;13.914;2023-03-23T11:21:39;97970.44;;;16.17;82.68
18678;BME280;9469;51.114;13.914;2023-03-23T11:26:45;97975.00;;;16.16;83.70
18678;BME280;9469;51.114;13.914;2023-03-23T11:32:06;97981.69;;;15.88;84.54
18678;BME280;9469;51.114;13.914;2023-03-23T11:37:20;97992.78;;;15.86;85.81
18678;BME280;9469;51.114;13.914;2023-03-23T11:42:38;97974.22;;;15.77;86.82
18678;BME280;9469;51.114;13.914;2023-03-23T11:47:55;97976.81;;;15.74;88.19
18678;BME280;9469;51.114;13.914;2023-03-23T11:53:27;97999.06;;;15.59;90.19
18678;BME280;9469;51.114;13.914;2023-03-23T11:58:37;97994.94;;;15.61;93.84
18678;BME280;9469;51.114;13.914;2023-03-23T12:04:01;98004.69;;;15.38;95.82
18678;BME280;9469;51.114;13.914;2023-03-23T12:09:17;98001.19;;;15.19;99.33
18678;BME280;9469;51.114;13.914;2023-03-23T12:14:35;97998.75;;;15.45;98.75
18678;BME280;9469;51.114;13.914;2023-03-23T12:20:00;98001.19;;;15.19;100.00
18678;BME280;9469;51.114;13.914;2023-03-23T12:25:30;98013.44;;;14.88;100.00
18678;BME280;9469;51.114;13.914;2023-03-23T12:30:42;98001.34;;;14.79;99.72
18678;BME280;9469;51.114;13.914;2023-03-23T12:36:07;97983.66;;;14.90;96.16
18678;BME280;9469;51.114;13.914;2023-03-23T12:41:20;97983.53;;;15.18;94.57
18678;BME280;9469;51.114;13.914;2023-03-23T12:46:55;97974.78;;;15.36;92.62
18678;BME280;9469;51.114;13.914;2023-03-23T12:52:23;97964.78;;;15.49;91.47
18678;BME280;9469;51.114;13.914;2023-03-23T12:57:35;97973.91;;;15.63;90.61
18678;BME280;9469;51.114;13.914;2023-03-23T13:02:55;97966.75;;;15.87;90.62
18678;BME280;9469;51.114;13.914;2023-03-23T13:08:11;97963.28;;;15.51;89.78
18678;BME280;9469;51.114;13.914;2023-03-23T13:13:23;97979.25;;;15.63;90.43
18678;BME280;9469;51.114;13.914;2023-03-23T13:18:38;97983.72;;;15.75;87.33
18678;BME280;9469;51.114;13.914;2023-03-23T13:23:52;97975.84;;;15.82;87.71
18678;BME280;9469;51.114;13.914;2023-03-23T13:29:01;97970.16;;;15.68;87.98
18678;BME280;9469;51.114;13.914;2023-03-23T13:34:16;97951.69;;;16.01;86.45
18678;BME280;9469;51.114;13.914;2023-03-23T13:39:27;97937.03;;;15.95;86.48
18678;BME280;9469;51.114;13.914;2023-03-23T13:44:44;97913.16;;;16.09;85.97
18678;BME280;9469;51.114;13.914;2023-03-23T13:50:02;97918.31;;;16.18;83.79
18678;BME280;9469;51.114;13.914;2023-03-23T13:55:39;97917.00;;;16.31;84.13
18678;BME280;9469;51.114;13.914;2023-03-23T14:00:47;97922.19;;;16.20;82.17
18678;BME280;9469;51.114;13.914;2023-03-23T14:06:03;97901.56;;;16.24;80.06
18678;BME280;9469;51.114;13.914;2023-03-23T14:11:33;97920.94;;;16.14;80.14
18678;BME280;9469;51.114;13.914;2023-03-23T14:16:48;97909.31;;;16.29;78.43
18678;BME280;9469;51.114;13.914;2023-03-23T14:21:55;97913.91;;;16.71;78.02
18678;BME280;9469;51.114;13.914;2023-03-23T14:27:13;97905.25;;;16.58;78.02
18678;BME280;9469;51.114;13.914;2023-03-23T14:32:21;97911.91;;;16.64;77.26
18678;BME280;9469;51.114;13.914;2023-03-23T14:37:28;97907.72;;;16.47;76.21
18678;BME280;9469;51.114;13.914;2023-03-23T14:42:42;97913.84;;;16.25;77.82
18678;BME280;9469;51.114;13.914;2023-03-23T14:47:51;97925.75;;;16.47;77.62
18678;BME280;9469;51.114;13.914;2023-03-23T14:53:18;97913.84;;;16.25;77.81
18678;BME280;9469;51.114;13.914;2023-03-23T14:58:26;97931.06;;;16.24;78.48
18678;BME280;9469;51.114;13.914;2023-03-23T15:03:35;97917.34;;;16.07;79.57
18678;BME280;9469;51.114;13.914;2023-03-23T15:08:42;97925.66;;;16.21;80.21
18678;BME280;9469;51.114;13.914;2023-03-23T15:13:53;97919.66;;;16.08;80.42
18678;BME280;9469;51.114;13.914;2023-03-23T15:19:01;97936.53;;;16.09;80.45
18678;BME280;9469;51.114;13.914;2023-03-23T15:24:21;97915.69;;;15.83;81.28
18678;BME280;9469;51.114;13.914;2023-03-23T15:29:32;97930.47;;;15.93;81.88
18678;BME280;9469;51.114;13.914;2023-03-23T15:34:39;97940.00;;;15.90;81.71
18678;BME280;9469;51.114;13.914;2023-03-23T15:39:45;97952.69;;;15.93;82.10
18678;BME280;9469;51.114;13.914;2023-03-23T15:45:12;97949.03;;;15.82;81.99
18678;BME280;9469;51.114;13.914;2023-03-23T15:50:33;97944.56;;;15.70;81.26
18678;BME280;9469;51.114;13.914;2023-03-23T15:55:38;97963.84;;;15.76;81.80
18678;BME280;9469;51.114;13.914;2023-03-23T16:00:50;97964.03;;;15.67;82.44
18678;BME280;9469;51.114;13.914;2023-03-23T16:05:57;97965.94;;;15.67;80.88
18678;BME280;9469;51.114;13.914;2023-03-23T16:11:05;97971.59;;;15.62;82.39
18678;BME280;9469;51.114;13.914;2023-03-23T16:16:16;97976.16;;;15.61;81.27
18678;BME280;9469;51.114;13.914;2023-03-23T16:21:22;97963.19;;;15.63;80.57
18678;BME280;9469;51.114;13.914;2023-03-23T16:26:29;97970.16;;;15.68;81.28
18678;BME280;9469;51.114;13.914;2023-03-23T16:31:37;97976.00;;;15.54;80.86
18678;BME280;9469;51.114;13.914;2023-03-23T16:36:46;97997.38;;;15.51;81.83
18678;BME280;9469;51.114;13.914;2023-03-23T16:41:51;97997.28;;;15.47;81.26
18678;BME280;9469;51.114;13.914;2023-03-23T16:46:59;97999.53;;;15.45;81.61
18678;BME280;9469;51.114;13.914;2023-03-23T16:52:07;98004.09;;;15.45;80.38
18678;BME280;9469;51.114;13.914;2023-03-23T16:57:14;97998.06;;;15.32;81.52
18678;BME280;9469;51.114;13.914;2023-03-23T17:02:24;98003.22;;;15.41;80.48
18678;BME280;9469;51.114;13.914;2023-03-23T17:07:29;98001.25;;;15.38;81.62
18678;BME280;9469;51.114;13.914;2023-03-23T17:12:35;98006.97;;;15.21;82.12
18678;BME280;9469;51.114;13.914;2023-03-23T17:17:43;97996.31;;;15.08;83.28
18678;BME280;9469;51.114;13.914;2023-03-23T17:22:49;98025.53;;;15.14;83.61
18678;BME280;9469;51.114;13.914;2023-03-23T17:27:54;98044.38;;;15.01;84.68
18678;BME280;9469;51.114;13.914;2023-03-23T17:33:10;98037.72;;;14.95;85.88
18678;BME280;9469;51.114;13.914;2023-03-23T17:38:15;98048.50;;;14.83;86.49
18678;BME280;9469;51.114;13.914;2023-03-23T17:43:29;98042.97;;;14.76;87.21
18678;BME280;9469;51.114;13.914;2023-03-23T17:48:39;98048.91;;;14.70;87.28
18678;BME280;9469;51.114;13.914;2023-03-23T17:53:45;98035.56;;;14.58;88.46
18678;BME280;9469;51.114;13.914;2023-03-23T17:58:50;98031.00;;;14.58;88.36
18678;BME280;9469;51.114;13.914;2023-03-23T18:03:58;98035.31;;;14.47;89.21
18678;BME280;9469;51.114;13.914;2023-03-23T18:09:06;98055.72;;;14.40;90.04
18678;BME280;9469;51.114;13.914;2023-03-23T18:14:14;98060.28;;;14.39;90.48
18678;BME280;9469;51.114;13.914;2023-03-23T18:19:22;98062.28;;;14.42;90.74
18678;BME280;9469;51.114;13.914;2023-03-23T18:24:27;98068.09;;;14.44;90.58
18678;BME280;9469;51.114;13.914;2023-03-23T18:29:34;98063.41;;;14.41;91.09
18678;BME280;9469;51.114;13.914;2023-03-23T18:34:43;98067.72;;;14.46;91.22
18678;BME280;9469;51.114;13.914;2023-03-23T18:39:48;98065.75;;;14.43;91.18
18678;BME280;9469;51.114;13.914;2023-03-23T18:44:54;98062.09;;;14.35;92.15
18678;BME280;9469;51.114;13.914;2023-03-23T18:50:06;98048.41;;;14.24;93.55
18678;BME280;9469;51.114;13.914;2023-03-23T18:55:12;98055.88;;;14.07;94.89
18678;BME280;9469;51.114;13.914;2023-03-23T19:00:19;98053.22;;;14.07;94.86
18678;BME280;9469;51.114;13.914;2023-03-23T19:05:27;98063.72;;;14.00;95.93
18678;BME280;9469;51.114;13.914;2023-03-23T19:10:35;98066.06;;;13.89;96.50
18678;BME280;9469;51.114;13.914;2023-03-23T19:15:41;98061.50;;;13.78;97.74
18678;BME280;9469;51.114;13.914;2023-03-23T19:20:50;98064.53;;;13.64;98.24
18678;BME280;9469;51.114;13.914;2023-03-23T19:26:23;98053.72;;;13.73;98.34
18678;BME280;9469;51.114;13.914;2023-03-23T19:31:28;98060.19;;;13.59;98.67
18678;BME280;9469;51.114;13.914;2023-03-23T19:36:37;98069.88;;;13.76;98.17
18678;BME280;9469;51.114;13.914;2023-03-23T19:41:42;98050.59;;;13.83;97.35
18678;BME280;9469;51.114;13.914;2023-03-23T19:46:50;98051.59;;;13.78;97.39
18678;BME280;9469;51.114;13.914;2023-03-23T19:51:58;98036.69;;;13.77;97.54
18678;BME280;9469;51.114;13.914;2023-03-23T19:57:11;98044.38;;;13.79;97.21
18678;BME280;9469;51.114;13.914;2023-03-23T20:02:16;98051.38;;;13.71;97.41
18678;BME280;9469;51.114;13.914;2023-03-23T20:07:28;98061.28;;;13.71;97.13
18678;BME280;9469;51.114;13.914;2023-03-23T20:12:33;98055.06;;;13.66;97.05
18678;BME280;9469;51.114;13.914;2023-03-23T20:17:39;98064.53;;;13.76;96.33
18678;BME280;9469;51.114;13.914;2023-03-23T20:22:47;98070.88;;;13.72;96.71
18678;BME280;9469;51.114;13.914;2023-03-23T20:27:57;98058.16;;;13.68;96.98
18678;BME280;9469;51.114;13.914;2023-03-23T20:33:03;98057.28;;;13.64;96.61
18678;BME280;9469;51.114;13.914;2023-03-23T20:38:13;98054.75;;;13.68;96.37
18678;BME280;9469;51.114;13.914;2023-03-23T20:43:19;98061.53;;;13.65;96.05
18678;BME280;9469;51.114;13.914;2023-03-23T20:48:27;98066.84;;;13.78;95.86
18678;BME280;9469;51.114;13.914;2023-03-23T20:53:37;98059.81;;;13.97;95.12
18678;BME280;9469;51.114;13.914;2023-03-23T20:58:45;98061.84;;;13.88;95.26
18678;BME280;9469;51.114;13.914;2023-03-23T21:03:53;98069.53;;;13.90;94.90
18678;BME280;9469;51.114;13.914;2023-03-23T21:09:02;98065.41;;;13.92;94.03
18678;BME280;9469;51.114;13.914;2023-03-23T21:14:08;98054.16;;;13.87;94.05
18678;BME280;9469;51.114;13.914;2023-03-23T21:19:13;98056.72;;;13.95;94.07
18678;BME280;9469;51.114;13.914;2023-03-23T21:24:23;98060.94;;;13.84;94.78
18678;BME280;9469;51.114;13.914;2023-03-23T21:29:30;98037.22;;;13.83;94.51
18678;BME280;9469;51.114;13.914;2023-03-23T21:34:36;98036.13;;;13.84;94.93
18678;BME280;9469;51.114;13.914;2023-03-23T21:39:46;98031.09;;;13.82;94.81
18678;BME280;9469;51.114;13.914;2023-03-23T21:44:52;98033.66;;;13.91;94.57
18678;BME280;9469;51.114;13.914;2023-03-23T21:50:04;98031.88;;;13.95;94.20
18678;BME280;9469;51.114;13.914;2023-03-23T21:55:18;98022.84;;;13.87;94.74
18678;BME280;9469;51.114;13.914;2023-03-23T22:00:24;98016.84;;;13.90;94.37
18678;BME280;9469;51.114;13.914;2023-03-23T22:05:30;98017.41;;;13.84;94.05
18678;BME280;9469;51.114;13.914;2023-03-23T22:10:42;98010.72;;;13.90;94.05
18678;BME280;9469;51.114;13.914;2023-03-23T22:16:03;97997.56;;;13.85;94.23
18678;BME280;9469;51.114;13.914;2023-03-23T22:21:10;97996.78;;;13.84;93.96
18678;BME280;9469;51.114;13.914;2023-03-23T22:26:18;97994.47;;;13.83;94.39
18678;BME280;9469;51.114;13.914;2023-03-23T22:31:32;97986.09;;;13.84;93.96
18678;BME280;9469;51.114;13.914;2023-03-23T22:36:38;97988.88;;;13.88;93.88
18678;BME280;9469;51.114;13.914;2023-03-23T22:41:46;97978.72;;;13.93;93.11
18678;BME280;9469;51.114;13.914;2023-03-23T22:46:52;97976.63;;;13.87;93.35
18678;BME280;9469;51.114;13.914;2023-03-23T22:51:57;97970.03;;;13.96;93.11
18678;BME280;9469;51.114;13.914;2023-03-23T22:57:07;97963.66;;;14.01;92.31
18678;BME280;9469;51.114;13.914;2023-03-23T23:02:13;97964.00;;;13.99;92.35
18678;BME280;9469;51.114;13.914;2023-03-23T23:07:18;97951.84;;;14.02;92.09
18678;BME280;9469;51.114;13.914;2023-03-23T23:12:27;97950.72;;;14.03;91.84
18678;BME280;9469;51.114;13.914;2023-03-23T23:17:36;97941.91;;;14.02;91.88
18678;BME280;9469;51.114;13.914;2023-03-23T23:22:41;97935.94;;;13.93;92.71
18678;BME280;9469;51.114;13.914;2023-03-23T23:27:51;97927.25;;;13.96;92.52
18678;BME280;9469;51.114;13.914;2023-03-23T23:32:56;97918.25;;;13.89;92.90
18678;BME280;9469;51.114;13.914;2023-03-23T23:38:03;97928.75;;;13.82;93.08
18678;BME280;9469;51.114;13.914;2023-03-23T23:43:15;97918.53;;;13.72;93.41
18678;BME280;9469;51.114;13.914;2023-03-23T23:48:20;97917.03;;;13.46;95.32
18678;BME280;9469;51.114;13.914;2023-03-23T23:53:25;97915.84;;;13.32;96.67
18678;BME280;9469;51.114;13.914;2023-03-23T23:58:37;97912.84;;;13.33;96.83
